SPHO/AYP METAR and TAF weather

Enter ICAO airport designator
Station Type Date Time Source
SPHO METAR 2020/01/20 19:00 UTC NOAA

SPHO 201900Z VRB04KT 9999 SCT050TCU 22/09 Q1025 RMK SH SE PP000


Station Type Date Time Source
SPHO Decoded METAR 2020/01/20 19:00 UTC NOAA

Ayacucho, Peru (SPHO) 13-08S 074-13W 2749M
Jan 20, 2020 - 02:00 PM EST / 2020.01.20 1900 UTC
Wind: Variable at 5 MPH (4 KT):0
Visibility: greater than 7 mile(s):0
Sky conditions: partly cloudy
Weather: Towering cumulus clouds observed
Temperature: 71 F (22 C)
Dew Point: 48 F (9 C)
Relative Humidity: 43%
Pressure (altimeter): 30.27 in. Hg (1025 hPa)
ob: SPHO 201900Z VRB04KT 9999 SCT050TCU 22/09 Q1025 RMK SH SE PP000
cycle: 19

Station Type Date Time Source
SPHO TAF 2020/01/20 18:33 UTC NOAA

SPHO 201700Z 2018/2118 10005KT 9999 FEW020 SCT050 TX23/2019Z TN12/2111Z
TEMPO 2020/2102 RA FEW040 BKN080
TEMPO 2105/2109 RA

Example: see airport list